Time;durP1;ratioP1;P1;durP2;ratioP2;P2;SDS_P1;SDS_P2;PMS_P1;PMS_P2;Temp;Humidity;BMP_temperature;BMP_pressure;BME280_temperature;BME280_humidity;BME280_pressure;Samples;Min_cycle;Max_cycle;Signal;HPM_P1;HPM_P2
2022/04/22 00:01:17;;;;;;;13.30;8.20;;;8.40;55.60;;;;;;4986128;28;20197;-59
2022/04/22 00:03:44;;;;;;;12.37;8.20;;;8.40;55.60;;;;;;4982880;28;20492;-59
2022/04/22 00:06:10;;;;;;;8.97;7.33;;;8.40;55.70;;;;;;4986614;28;20737;-59
2022/04/22 00:08:35;;;;;;;9.23;8.07;;;8.40;55.90;;;;;;4986650;28;20428;-59
2022/04/22 00:13:45;;;;;;;12.00;8.37;;;8.30;55.80;;;;;;4985231;28;20307;-59
2022/04/22 00:16:11;;;;;;;10.10;8.30;;;8.30;56.00;;;;;;4984651;28;20884;-60
2022/04/22 00:18:38;;;;;;;10.70;8.60;;;8.20;56.10;;;;;;4981970;28;20188;-59
2022/04/22 00:21:04;;;;;;;9.73;7.40;;;8.20;56.30;;;;;;4985346;28;20658;-59
2022/04/22 00:23:30;;;;;;;8.63;7.53;;;8.20;56.60;;;;;;4983179;28;20428;-59
2022/04/22 00:25:58;;;;;;;12.30;8.07;;;8.20;56.70;;;;;;4982989;28;21022;-59
2022/04/22 00:28:24;;;;;;;11.10;8.57;;;8.20;56.70;;;;;;4987920;28;20439;-59
2022/04/22 00:30:50;;;;;;;8.33;7.50;;;8.10;56.70;;;;;;4986257;28;20448;-59
2022/04/22 00:33:17;;;;;;;9.90;8.00;;;8.10;56.90;;;;;;4985201;28;20459;-59
2022/04/22 00:35:44;;;;;;;14.00;7.90;;;8.10;57.00;;;;;;4984316;28;20866;-59
2022/04/22 00:38:10;;;;;;;9.40;7.73;;;8.10;57.10;;;;;;4982292;28;20427;-59
2022/04/22 00:40:36;;;;;;;10.40;7.97;;;8.00;57.30;;;;;;4985129;28;21275;-59
2022/04/22 00:43:15;;;;;;;10.33;7.60;;;8.00;57.40;;;;;;4980316;28;20421;-59
2022/04/22 00:45:41;;;;;;;10.40;8.57;;;8.10;57.50;;;;;;4988712;28;20441;-59
2022/04/22 00:48:07;;;;;;;13.10;8.83;;;8.00;57.50;;;;;;4982956;28;20433;-59
2022/04/22 00:50:33;;;;;;;13.50;9.27;;;8.00;57.60;;;;;;4983747;28;20475;-60
2022/04/22 00:52:58;;;;;;;9.77;8.00;;;8.00;57.70;;;;;;4999339;28;20228;-58
2022/04/22 00:55:24;;;;;;;14.73;8.37;;;8.00;57.80;;;;;;4979647;28;20244;-60
2022/04/22 00:57:50;;;;;;;19.27;8.80;;;8.00;58.00;;;;;;4981104;28;20178;-60
2022/04/22 01:00:16;;;;;;;18.63;9.23;;;8.00;58.20;;;;;;4982074;28;20949;-59
2022/04/22 01:02:42;;;;;;;11.37;9.17;;;8.00;58.40;;;;;;4986859;28;20590;-59
2022/04/22 01:10:37;;;;;;;15.03;8.90;;;8.00;58.90;;;;;;4984188;28;20459;-60
2022/04/22 01:13:04;;;;;;;15.40;10.00;;;8.00;58.40;;;;;;4984811;28;20933;-60
2022/04/22 01:15:30;;;;;;;14.10;9.90;;;8.00;58.50;;;;;;4985258;28;20180;-59
2022/04/22 01:17:55;;;;;;;13.87;10.13;;;7.90;58.60;;;;;;4984065;28;20432;-59
2022/04/22 01:20:21;;;;;;;16.80;10.30;;;7.90;58.70;;;;;;4979792;28;20202;-59
2022/04/22 01:22:46;;;;;;;11.80;9.27;;;7.90;58.70;;;;;;4984877;28;20239;-59
2022/04/22 01:25:12;;;;;;;11.53;8.43;;;7.90;58.70;;;;;;4979900;28;20273;-58
2022/04/22 01:27:38;;;;;;;14.60;8.77;;;7.90;58.80;;;;;;4980806;28;20216;-60
2022/04/22 01:30:06;;;;;;;10.90;8.60;;;7.80;58.80;;;;;;4984510;28;20193;-59
2022/04/22 01:32:32;;;;;;;11.63;7.93;;;7.80;58.80;;;;;;4984706;28;20193;-59
2022/04/22 01:34:57;;;;;;;19.10;8.83;;;7.70;58.90;;;;;;4967106;28;21269;-59
2022/04/22 01:37:23;;;;;;;10.87;8.30;;;7.70;59.00;;;;;;4983327;28;20417;-59
2022/04/22 01:39:49;;;;;;;11.60;8.60;;;7.60;59.20;;;;;;4982857;28;20211;-60
2022/04/22 01:42:15;;;;;;;10.63;8.23;;;7.50;59.50;;;;;;4983988;28;20437;-60
2022/04/22 01:44:41;;;;;;;12.03;8.83;;;7.50;59.70;;;;;;4983353;28;20181;-59
2022/04/22 01:47:07;;;;;;;11.87;8.50;;;7.50;60.00;;;;;;4976362;28;20460;-59
2022/04/22 01:49:33;;;;;;;12.03;9.43;;;7.50;60.10;;;;;;4980246;28;20818;-59
2022/04/22 01:51:58;;;;;;;12.93;9.13;;;7.40;60.50;;;;;;4984758;28;21021;-59
2022/04/22 01:54:24;;;;;;;12.97;9.10;;;7.40;60.70;;;;;;4982001;28;20258;-59
2022/04/22 01:56:50;;;;;;;10.90;8.70;;;7.40;61.10;;;;;;4976324;28;20558;-59
2022/04/22 01:59:16;;;;;;;12.33;9.17;;;7.40;61.30;;;;;;4982601;28;20641;-59
2022/04/22 02:01:41;;;;;;;12.97;9.70;;;7.40;61.40;;;;;;4965741;28;20204;-59
2022/04/22 02:04:07;;;;;;;9.70;8.40;;;7.30;61.40;;;;;;4978315;28;20468;-59
2022/04/22 02:06:33;;;;;;;12.30;9.40;;;7.30;61.70;;;;;;4980040;28;20193;-59
2022/04/22 02:08:58;;;;;;;11.83;8.87;;;7.30;62.10;;;;;;4986486;28;20661;-60
2022/04/22 02:11:24;;;;;;;32.60;10.40;;;7.30;62.20;;;;;;4986376;28;20189;-59
2022/04/22 02:13:50;;;;;;;11.73;8.70;;;7.30;62.20;;;;;;4984123;28;20170;-59
2022/04/22 02:16:15;;;;;;;11.97;9.47;;;7.20;62.30;;;;;;4980868;28;20232;-59
2022/04/22 02:18:42;;;;;;;13.43;9.67;;;7.20;62.60;;;;;;4984279;28;20538;-59
2022/04/22 02:21:09;;;;;;;14.63;9.63;;;7.10;62.80;;;;;;4982458;28;20201;-60
2022/04/22 02:23:35;;;;;;;11.70;8.60;;;7.10;63.20;;;;;;4982938;28;20427;-60
2022/04/22 02:26:03;;;;;;;13.53;9.77;;;7.10;63.20;;;;;;4985593;28;20456;-59
2022/04/22 02:28:31;;;;;;;11.43;9.10;;;7.10;63.30;;;;;;4981349;28;20436;-60
2022/04/22 02:31:04;;;;;;;15.20;9.70;;;7.00;63.50;;;;;;4982736;28;20468;-59
2022/04/22 02:33:31;;;;;;;18.73;11.23;;;7.00;63.90;;;;;;4983482;28;20451;-59
2022/04/22 02:35:57;;;;;;;15.57;9.67;;;7.00;64.40;;;;;;4983326;28;20420;-60
2022/04/22 02:38:23;;;;;;;11.90;9.30;;;6.90;64.50;;;;;;4984605;28;20445;-60
2022/04/22 02:46:17;;;;;;;15.00;9.33;;;6.80;65.70;;;;;;4986286;28;20542;-60
2022/04/22 02:48:42;;;;;;;14.50;9.20;;;6.80;66.00;;;;;;4984844;28;20456;-60
2022/04/22 02:51:10;;;;;;;13.30;9.20;;;6.80;66.20;;;;;;4981949;28;20245;-60
2022/04/22 02:53:35;;;;;;;14.27;9.63;;;6.80;66.60;;;;;;4982414;28;20704;-60
2022/04/22 02:56:01;;;;;;;13.73;9.23;;;6.70;67.20;;;;;;4969615;28;20577;-61
2022/04/22 02:58:27;;;;;;;13.03;9.90;;;6.70;68.00;;;;;;4983574;28;20244;-60
2022/04/22 03:00:53;;;;;;;14.20;10.27;;;6.70;68.40;;;;;;4984367;28;20201;-60
2022/04/22 03:03:18;;;;;;;13.50;10.13;;;6.70;69.20;;;;;;4983795;28;20281;-60
2022/04/22 03:05:44;;;;;;;13.67;10.33;;;6.70;69.80;;;;;;4982487;28;20240;-60
2022/04/22 03:08:10;;;;;;;16.23;10.17;;;6.70;70.40;;;;;;4984842;28;20173;-59
2022/04/22 03:10:36;;;;;;;13.23;9.80;;;6.70;70.90;;;;;;4985380;28;20960;-59
2022/04/22 03:13:03;;;;;;;12.60;9.23;;;6.70;71.10;;;;;;4984740;28;20193;-60
2022/04/22 03:15:30;;;;;;;16.10;9.87;;;6.70;71.60;;;;;;4983899;28;20443;-59
2022/04/22 03:17:55;;;;;;;14.83;9.97;;;6.70;71.70;;;;;;4983690;28;21853;-59
2022/04/22 03:20:21;;;;;;;14.13;10.47;;;6.70;71.70;;;;;;4983075;28;20538;-60
2022/04/22 03:22:47;;;;;;;14.57;9.53;;;6.70;71.90;;;;;;4985191;28;20185;-58
2022/04/22 03:25:13;;;;;;;15.53;11.13;;;6.70;72.10;;;;;;4983066;28;20804;-60
2022/04/22 03:27:38;;;;;;;16.10;10.67;;;6.70;72.60;;;;;;4981153;28;20213;-60
2022/04/22 03:30:04;;;;;;;15.50;11.80;;;6.70;72.70;;;;;;4984801;28;20648;-60
2022/04/22 03:32:30;;;;;;;14.70;10.93;;;6.70;73.50;;;;;;4983495;28;20181;-59
2022/04/22 03:34:56;;;;;;;11.97;9.60;;;6.70;73.90;;;;;;4981406;28;20973;-60
2022/04/22 03:37:22;;;;;;;13.57;10.60;;;6.60;74.40;;;;;;4984744;28;20416;-59
2022/04/22 03:39:47;;;;;;;15.03;10.87;;;6.60;74.80;;;;;;4986207;28;20760;-60
2022/04/22 03:42:13;;;;;;;16.10;10.40;;;6.60;75.10;;;;;;4985780;28;20182;-60
2022/04/22 03:44:39;;;;;;;19.57;11.77;;;6.60;74.70;;;;;;4982385;28;20200;-60
2022/04/22 03:47:07;;;;;;;13.90;10.40;;;6.60;75.80;;;;;;4984757;28;20468;-59
2022/04/22 03:49:33;;;;;;;15.40;10.97;;;6.60;76.50;;;;;;4984820;28;20165;-59
2022/04/22 03:51:59;;;;;;;14.53;11.03;;;6.60;76.70;;;;;;4985575;28;20840;-59
2022/04/22 03:54:25;;;;;;;15.73;11.13;;;6.50;77.30;;;;;;5039292;22;20531;-57
2022/04/22 03:59:35;;;;;;;13.53;10.27;;;6.50;78.80;;;;;;5024324;28;20420;-57
2022/04/22 04:02:01;;;;;;;17.10;11.37;;;6.50;79.60;;;;;;5022414;28;20486;-57
2022/04/22 04:04:27;;;;;;;16.00;11.10;;;6.50;79.30;;;;;;4995357;28;20261;-57
2022/04/22 04:06:53;;;;;;;16.50;10.90;;;6.50;79.70;;;;;;5007749;28;20959;-55
2022/04/22 04:17:36;;;;;;;17.63;11.83;;;6.40;82.40;;;;;;5008779;28;20457;-57
2022/04/22 04:25:32;;;;;;;338.83;116.83;;;6.40;83.50;;;;;;5011077;28;20458;-57
2022/04/22 04:27:57;;;;;;;308.80;102.70;;;6.40;83.70;;;;;;5011426;28;20458;-56
2022/04/22 04:30:23;;;;;;;162.60;59.53;;;6.40;84.40;;;;;;5012500;28;20509;-56
2022/04/22 04:32:49;;;;;;;28.80;16.70;;;6.40;84.50;;;;;;5012178;28;20173;-56
2022/04/22 04:35:15;;;;;;;21.03;12.90;;;6.30;83.60;;;;;;5011684;28;20446;-57
2022/04/22 04:37:41;;;;;;;19.83;12.20;;;6.30;83.40;;;;;;4996900;28;20587;-55
2022/04/22 04:40:08;;;;;;;18.47;11.90;;;6.30;83.80;;;;;;5013593;28;20251;-55
2022/04/22 04:42:34;;;;;;;20.20;12.77;;;6.20;84.80;;;;;;5013956;28;20411;-57
2022/04/22 04:45:00;;;;;;;19.80;13.07;;;6.20;85.10;;;;;;5008523;28;20462;-57
2022/04/22 04:47:25;;;;;;;23.43;12.47;;;6.20;85.10;;;;;;5010198;28;20215;-56
2022/04/22 04:49:51;;;;;;;19.27;12.33;;;6.20;85.00;;;;;;4990878;28;20428;-59
2022/04/22 04:52:16;;;;;;;18.50;12.13;;;6.20;86.00;;;;;;5009412;28;20187;-55
2022/04/22 04:54:42;;;;;;;27.10;11.90;;;6.20;85.80;;;;;;5009357;28;20213;-57
2022/04/22 04:57:08;;;;;;;16.30;12.53;;;6.20;86.80;;;;;;4994140;28;20181;-56
2022/04/22 04:59:34;;;;;;;17.93;12.07;;;6.20;87.40;;;;;;5011568;28;20187;-57
2022/04/22 05:02:00;;;;;;;18.57;12.47;;;6.20;87.50;;;;;;5009979;28;20334;-56
2022/04/22 05:04:25;;;;;;;20.37;12.73;;;6.30;88.10;;;;;;5011776;28;20571;-56
2022/04/22 05:06:51;;;;;;;18.23;12.00;;;6.30;88.20;;;;;;5008669;28;20216;-56
2022/04/22 05:09:16;;;;;;;19.53;13.20;;;6.30;88.20;;;;;;4990803;28;20177;-57
2022/04/22 05:11:42;;;;;;;20.20;12.90;;;6.40;88.70;;;;;;5010622;28;20563;-57
2022/04/22 05:14:08;;;;;;;17.80;12.20;;;6.40;87.80;;;;;;5004107;28;20204;-56
2022/04/22 05:16:34;;;;;;;19.70;12.90;;;6.50;88.30;;;;;;5001334;28;22107;-56
2022/04/22 05:18:59;;;;;;;21.60;13.37;;;6.50;88.50;;;;;;4975818;28;20211;-55
2022/04/22 05:21:25;;;;;;;17.80;12.47;;;6.60;87.50;;;;;;4996556;28;22489;-53
2022/04/22 05:23:51;;;;;;;22.93;12.67;;;6.70;87.40;;;;;;5001874;28;20212;-52
2022/04/22 05:26:16;;;;;;;22.63;13.00;;;6.80;85.60;;;;;;5004910;28;20208;-58
2022/04/22 05:28:42;;;;;;;23.50;14.83;;;6.80;85.30;;;;;;4998469;28;20173;-57
2022/04/22 05:33:52;;;;;;;19.13;12.03;;;7.00;83.60;;;;;;4993557;28;20335;-55
2022/04/22 05:36:20;;;;;;;20.13;13.43;;;7.10;82.50;;;;;;5003533;28;20882;-56
2022/04/22 05:38:46;;;;;;;21.20;13.13;;;7.10;81.10;;;;;;4997218;28;20195;-54
2022/04/22 05:41:11;;;;;;;23.07;13.80;;;7.20;81.40;;;;;;4994825;28;20842;-55
2022/04/22 05:43:37;;;;;;;24.77;12.50;;;7.20;82.00;;;;;;4997332;28;22193;-59
2022/04/22 05:46:03;;;;;;;29.00;13.93;;;7.30;81.50;;;;;;4999243;28;20238;-56
2022/04/22 05:48:28;;;;;;;23.60;13.50;;;7.40;80.10;;;;;;4995003;28;20204;-58
2022/04/22 05:50:55;;;;;;;24.50;14.20;;;7.50;79.70;;;;;;4983693;28;20485;-57
2022/04/22 05:53:21;;;;;;;19.47;13.80;;;7.50;79.30;;;;;;4995070;28;20217;-58
2022/04/22 05:55:47;;;;;;;21.20;13.00;;;7.60;79.50;;;;;;4995615;28;20462;-54
2022/04/22 05:58:12;;;;;;;23.13;14.43;;;7.70;78.30;;;;;;5003659;28;20180;-58
2022/04/22 06:00:38;;;;;;;21.30;14.00;;;7.80;77.20;;;;;;4997580;28;20549;-57
2022/04/22 06:03:04;;;;;;;19.80;13.27;;;7.90;76.30;;;;;;4999586;28;21921;-57
2022/04/22 06:05:31;;;;;;;21.60;14.60;;;7.90;75.30;;;;;;4999277;28;20717;-58
2022/04/22 06:10:41;;;;;;;20.07;13.60;;;8.00;73.70;;;;;;5003484;28;20426;-57
2022/04/22 06:13:08;;;;;;;25.27;14.47;;;8.00;73.00;;;;;;4993216;28;20447;-57
2022/04/22 06:15:33;;;;;;;22.83;14.13;;;8.00;73.70;;;;;;4962403;28;20431;-55
2022/04/22 06:17:59;;;;;;;22.73;13.90;;;8.10;74.50;;;;;;4992624;28;20786;-54
2022/04/22 06:20:26;;;;;;;22.50;14.27;;;8.10;74.40;;;;;;4992140;28;20263;-55
2022/04/22 06:22:51;;;;;;;20.03;13.87;;;8.20;73.20;;;;;;4979751;28;20804;-51
2022/04/22 06:25:17;;;;;;;24.77;15.30;;;8.20;72.90;;;;;;4995983;28;20490;-57
2022/04/22 06:27:45;;;;;;;28.10;15.37;;;8.30;72.10;;;;;;5004645;28;20799;-56
2022/04/22 06:30:15;;;;;;;22.27;13.67;;;8.50;71.60;;;;;;5002764;28;20456;-58
2022/04/22 06:32:43;;;;;;;21.77;14.43;;;8.60;69.70;;;;;;5004218;28;20454;-57
2022/04/22 06:35:10;;;;;;;26.53;15.60;;;8.60;69.10;;;;;;4999282;28;20478;-54
2022/04/22 06:37:43;;;;;;;25.00;15.80;;;8.60;68.50;;;;;;4997467;28;20475;-57
2022/04/22 06:45:46;;;;;;;27.20;15.60;;;8.80;67.80;;;;;;4994778;28;20980;-58
2022/04/22 06:48:31;;;;;;;22.13;14.60;;;8.80;67.40;;;;;;4999581;28;21011;-55
2022/04/22 06:50:58;;;;;;;22.60;14.00;;;8.90;69.20;;;;;;4997961;28;20438;-57
2022/04/22 06:53:25;;;;;;;22.80;14.33;;;9.10;69.30;;;;;;4997229;28;20464;-56
2022/04/22 06:55:53;;;;;;;21.67;14.60;;;9.30;67.50;;;;;;4998572;28;20983;-56
2022/04/22 06:58:20;;;;;;;21.60;14.60;;;9.50;66.10;;;;;;5001675;28;20427;-56
2022/04/22 07:00:47;;;;;;;29.80;13.40;;;9.60;64.60;;;;;;4998349;28;20562;-57
2022/04/22 07:03:15;;;;;;;22.17;14.47;;;9.60;63.60;;;;;;4996582;28;20451;-57
2022/04/22 07:05:43;;;;;;;22.67;15.30;;;9.70;63.30;;;;;;4997177;28;20428;-57
2022/04/22 07:08:13;;;;;;;21.77;14.13;;;9.70;63.20;;;;;;4995843;28;20791;-58
2022/04/22 07:10:42;;;;;;;23.83;14.70;;;9.80;63.00;;;;;;4998351;28;20797;-54
2022/04/22 07:13:09;;;;;;;24.50;15.13;;;9.80;62.30;;;;;;4993681;28;20460;-59
2022/04/22 07:15:35;;;;;;;20.53;14.37;;;9.90;62.10;;;;;;4999460;28;20497;-59
2022/04/22 07:18:01;;;;;;;28.00;16.10;;;9.90;61.70;;;;;;4995060;28;20526;-58
2022/04/22 07:20:27;;;;;;;24.60;14.00;;;10.00;60.80;;;;;;5009083;28;21010;-59
2022/04/22 07:22:53;;;;;;;21.50;15.77;;;10.10;60.40;;;;;;5001998;28;20527;-58
2022/04/22 07:25:20;;;;;;;22.27;15.07;;;10.10;60.20;;;;;;4997824;28;20532;-58
2022/04/22 07:27:47;;;;;;;23.23;14.87;;;10.20;60.00;;;;;;5005010;28;20475;-58
2022/04/22 07:30:15;;;;;;;22.47;15.23;;;10.20;59.70;;;;;;4984398;28;20805;-58
2022/04/22 07:32:45;;;;;;;22.03;14.53;;;10.30;59.70;;;;;;4986160;28;20436;-58
2022/04/22 07:35:12;;;;;;;22.73;14.90;;;10.50;59.60;;;;;;5007809;28;20431;-59
2022/04/22 07:37:47;;;;;;;22.60;15.10;;;10.60;59.50;;;;;;5011078;28;20415;-58
2022/04/22 07:40:14;;;;;;;24.13;14.53;;;10.70;59.00;;;;;;4997997;28;20774;-58
2022/04/22 07:46:46;;;;;;;21.27;14.43;;;10.80;58.70;;;;;;5004169;28;20424;-58
2022/04/22 07:48:20;;;;;;;25.10;14.90;;;10.90;58.00;;;;;;5004574;28;20551;-59
2022/04/22 07:50:47;;;;;;;25.20;16.10;;;10.90;58.20;;;;;;5009156;28;20481;-58
2022/04/22 07:53:18;;;;;;;23.30;16.00;;;11.00;57.80;;;;;;5008133;28;20958;-58
2022/04/22 07:55:44;;;;;;;24.10;14.40;;;11.10;57.50;;;;;;5008915;28;20450;-58
2022/04/22 07:58:10;;;;;;;23.93;15.50;;;11.20;57.30;;;;;;5007935;28;20427;-58
2022/04/22 08:00:38;;;;;;;21.47;15.10;;;11.40;57.30;;;;;;5004603;28;20431;-58
2022/04/22 08:03:04;;;;;;;22.53;15.80;;;11.40;57.00;;;;;;4980760;28;21087;-58
2022/04/22 08:05:31;;;;;;;22.40;15.50;;;11.50;57.00;;;;;;5007955;28;20438;-58
2022/04/22 08:07:56;;;;;;;24.87;16.17;;;11.60;56.90;;;;;;4991036;28;20478;-58
2022/04/22 08:10:22;;;;;;;25.70;16.67;;;11.70;57.10;;;;;;5010377;28;20403;-58
2022/04/22 08:12:48;;;;;;;21.17;16.23;;;11.80;56.90;;;;;;5003095;28;20188;-59
2022/04/22 08:15:13;;;;;;;25.43;14.97;;;11.80;57.10;;;;;;4988920;28;20804;-58
2022/04/22 08:17:39;;;;;;;28.57;15.80;;;11.90;56.70;;;;;;5006176;28;20184;-58
2022/04/22 08:20:06;;;;;;;23.23;15.30;;;12.00;56.90;;;;;;5006917;28;20577;-58
2022/04/22 08:22:33;;;;;;;24.43;16.43;;;12.10;56.70;;;;;;5002840;28;20491;-58
2022/04/22 08:24:59;;;;;;;26.07;15.70;;;12.10;56.60;;;;;;5001716;28;20559;-58
2022/04/22 08:27:26;;;;;;;24.40;15.00;;;12.20;56.10;;;;;;4978986;28;20470;-58
2022/04/22 08:29:52;;;;;;;23.33;15.53;;;12.30;55.50;;;;;;5000131;28;20812;-58
2022/04/22 08:32:18;;;;;;;30.53;15.67;;;12.30;55.30;;;;;;4996938;28;20442;-58
2022/04/22 08:34:44;;;;;;;21.30;15.63;;;12.40;55.20;;;;;;4994992;28;20478;-58
2022/04/22 08:37:11;;;;;;;23.27;16.30;;;12.50;54.70;;;;;;4997450;28;20190;-58
2022/04/22 08:39:36;;;;;;;23.60;15.50;;;12.60;54.90;;;;;;4993901;28;20450;-58
2022/04/22 08:42:03;;;;;;;21.80;15.97;;;12.60;54.60;;;;;;4995756;28;20435;-58
2022/04/22 08:44:30;;;;;;;21.97;15.70;;;12.70;55.00;;;;;;4993901;28;20201;-59
2022/04/22 08:49:59;;;;;;;20.97;15.70;;;12.80;54.70;;;;;;4999022;28;20446;-56
2022/04/22 08:52:26;;;;;;;23.30;15.27;;;12.90;54.60;;;;;;5003084;28;20498;-56
2022/04/22 08:54:54;;;;;;;20.20;15.07;;;13.10;54.30;;;;;;4979410;28;20463;-57
2022/04/22 08:57:21;;;;;;;20.70;14.80;;;13.20;54.40;;;;;;4992907;28;20466;-57
2022/04/22 08:59:47;;;;;;;21.87;15.13;;;13.30;54.60;;;;;;4999633;28;20470;-57
2022/04/22 09:02:19;;;;;;;23.30;14.60;;;13.40;54.70;;;;;;5002803;28;20465;-57
2022/04/22 09:04:46;;;;;;;25.90;14.93;;;13.50;54.20;;;;;;4996804;28;20513;-56
2022/04/22 09:07:18;;;;;;;25.20;15.00;;;13.60;53.60;;;;;;5000863;28;20520;-56
2022/04/22 09:09:49;;;;;;;20.17;15.00;;;13.70;53.60;;;;;;4998907;28;20545;-57
2022/04/22 09:12:18;;;;;;;19.63;14.40;;;13.90;54.10;;;;;;5000352;28;20565;-57
2022/04/22 09:14:45;;;;;;;21.43;14.60;;;14.00;53.20;;;;;;4999062;28;20459;-57
2022/04/22 09:17:15;;;;;;;20.17;14.80;;;14.10;53.50;;;;;;4999504;28;20435;-57
2022/04/22 09:19:45;;;;;;;20.33;14.10;;;14.30;52.90;;;;;;4996061;28;20507;-57
2022/04/22 09:22:17;;;;;;;23.17;14.80;;;14.40;52.30;;;;;;4996350;28;20474;-57
2022/04/22 09:24:50;;;;;;;23.10;15.63;;;14.50;53.10;;;;;;4998900;28;20559;-58
2022/04/22 09:27:17;;;;;;;20.33;14.17;;;14.50;52.90;;;;;;4982585;28;20546;-57
2022/04/22 09:29:49;;;;;;;20.47;14.63;;;14.60;52.30;;;;;;4997443;28;20522;-57
2022/04/22 09:32:21;;;;;;;22.73;15.70;;;14.70;52.90;;;;;;4991351;28;20535;-56
2022/04/22 09:34:47;;;;;;;22.73;15.20;;;14.90;52.90;;;;;;4993328;28;21448;-56
2022/04/22 09:42:58;;;;;;;18.70;13.90;;;15.00;51.70;;;;;;4998921;28;20480;-56
2022/04/22 09:45:36;;;;;;;20.73;14.07;;;15.20;52.00;;;;;;4999262;28;20435;-57
2022/04/22 09:48:01;;;;;;;18.67;13.23;;;15.30;52.40;;;;;;5000016;28;21083;-57
2022/04/22 09:50:42;;;;;;;19.97;14.07;;;15.50;51.20;;;;;;5002330;28;21004;-57
2022/04/22 09:53:10;;;;;;;27.70;13.67;;;15.60;50.50;;;;;;4994883;28;20367;-56
2022/04/22 09:55:52;;;;;;;21.20;14.77;;;15.60;50.80;;;;;;4994167;28;20571;-53
2022/04/22 09:58:25;;;;;;;23.90;13.80;;;15.70;50.20;;;;;;4995097;28;20427;-56
2022/04/22 10:00:57;;;;;;;22.23;13.57;;;15.80;50.50;;;;;;4991741;28;20485;-56
2022/04/22 10:03:24;;;;;;;16.90;12.47;;;15.80;50.90;;;;;;4993027;28;20881;-57
2022/04/22 10:05:53;;;;;;;20.43;13.60;;;16.00;50.20;;;;;;4976715;28;20430;-57
2022/04/22 10:08:21;;;;;;;16.07;13.10;;;16.10;51.30;;;;;;4993940;28;20542;-57
2022/04/22 10:10:47;;;;;;;16.27;11.70;;;16.20;50.30;;;;;;4995072;28;20501;-57
2022/04/22 10:13:17;;;;;;;18.00;13.03;;;16.30;50.60;;;;;;4990645;28;21031;-57
2022/04/22 10:15:45;;;;;;;18.70;12.13;;;16.40;50.30;;;;;;4993592;28;20498;-56
2022/04/22 10:18:13;;;;;;;19.10;13.73;;;16.40;49.30;;;;;;4993015;28;21216;-57
2022/04/22 10:20:40;;;;;;;16.80;12.23;;;16.50;49.10;;;;;;4994142;28;20538;-57
2022/04/22 10:23:06;;;;;;;20.07;11.97;;;16.40;48.90;;;;;;4990326;28;20638;-57
2022/04/22 10:25:33;;;;;;;14.80;11.57;;;16.50;49.20;;;;;;4995091;28;20436;-57
2022/04/22 10:28:08;;;;;;;16.77;11.70;;;16.70;49.20;;;;;;4992610;28;20204;-57
2022/04/22 10:30:35;;;;;;;15.17;11.33;;;16.80;48.20;;;;;;4994758;28;20427;-57
2022/04/22 10:33:02;;;;;;;14.43;11.13;;;17.00;47.70;;;;;;4992695;28;20764;-58
2022/04/22 10:35:29;;;;;;;14.13;11.07;;;17.20;47.60;;;;;;4978484;28;20592;-57
2022/04/22 10:37:58;;;;;;;17.83;11.33;;;17.40;47.70;;;;;;4994194;28;20459;-57
2022/04/22 10:40:26;;;;;;;17.50;11.03;;;17.50;47.40;;;;;;4989785;28;21007;-57
2022/04/22 10:42:52;;;;;;;13.63;11.33;;;17.60;47.30;;;;;;4991186;28;20486;-57
2022/04/22 10:48:31;;;;;;;15.90;12.00;;;17.70;47.10;;;;;;4991124;28;20497;-58
2022/04/22 10:51:01;;;;;;;16.70;12.07;;;17.70;44.50;;;;;;4993701;28;20591;-58
2022/04/22 10:53:28;;;;;;;14.53;10.97;;;17.80;46.40;;;;;;4979439;28;20555;-58
2022/04/22 10:56:26;;;;;;;16.37;11.90;;;17.90;46.40;;;;;;4982215;28;21007;-57
2022/04/22 10:59:21;;;;;;;19.07;13.03;;;18.00;46.80;;;;;;4992796;28;20459;-57
2022/04/22 11:01:49;;;;;;;19.00;12.40;;;18.10;46.50;;;;;;4987072;28;20648;-58
2022/04/22 11:04:18;;;;;;;16.70;12.50;;;18.20;46.50;;;;;;4991708;28;21016;-57
2022/04/22 11:06:44;;;;;;;15.37;11.80;;;18.40;46.50;;;;;;4993748;28;20537;-56
2022/04/22 11:09:10;;;;;;;17.70;12.77;;;18.50;46.20;;;;;;5000579;28;20502;-57
2022/04/22 11:11:40;;;;;;;15.87;11.97;;;18.70;44.20;;;;;;4994870;28;20440;-57
2022/04/22 11:14:20;;;;;;;17.13;11.13;;;18.60;44.20;;;;;;4994374;28;20207;-57
2022/04/22 11:16:46;;;;;;;15.47;11.47;;;18.60;45.20;;;;;;4980698;28;20503;-57
2022/04/22 11:19:18;;;;;;;15.87;11.13;;;18.80;45.70;;;;;;4982289;28;20537;-57
2022/04/22 11:21:50;;;;;;;17.40;11.07;;;19.00;45.30;;;;;;4998431;28;20515;-57
2022/04/22 11:24:21;;;;;;;18.90;12.60;;;19.20;44.40;;;;;;4982723;28;20700;-57
2022/04/22 11:26:47;;;;;;;17.57;11.83;;;19.20;42.90;;;;;;4996213;28;20461;-57
2022/04/22 11:29:14;;;;;;;13.87;10.83;;;19.10;43.50;;;;;;4995745;28;20439;-57
2022/04/22 11:31:40;;;;;;;12.43;11.10;;;19.20;43.60;;;;;;5000144;28;20529;-57
2022/04/22 11:34:13;;;;;;;12.73;10.70;;;19.40;43.70;;;;;;4997880;28;20881;-56
2022/04/22 11:36:46;;;;;;;18.23;13.40;;;19.70;44.00;;;;;;4979848;28;20267;-58
2022/04/22 11:39:15;;;;;;;18.47;12.90;;;19.80;41.40;;;;;;4995707;28;20462;-58
2022/04/22 11:42:00;;;;;;;14.00;10.90;;;19.80;42.30;;;;;;4993573;28;20461;-58
2022/04/22 11:44:27;;;;;;;14.50;10.87;;;19.80;43.30;;;;;;5000274;28;20648;-59
2022/04/22 11:46:53;;;;;;;18.60;11.30;;;19.70;43.00;;;;;;5000255;28;21122;-56
2022/04/22 11:49:21;;;;;;;11.83;9.67;;;19.40;41.90;;;;;;4998935;28;20439;-57
2022/04/22 11:51:53;;;;;;;19.77;11.60;;;19.20;41.40;;;;;;4982258;28;21379;-56
2022/04/22 11:54:25;;;;;;;15.77;11.90;;;18.90;41.80;;;;;;4994423;28;20939;-56
2022/04/22 11:56:54;;;;;;;12.00;10.10;;;18.60;42.50;;;;;;4995514;28;20470;-57
2022/04/22 11:59:21;;;;;;;14.20;11.30;;;18.50;43.20;;;;;;4995371;28;20512;-57
2022/04/22 12:10:02;;;;;;;13.47;10.90;;;18.30;43.00;;;;;;4996093;28;20429;-57
2022/04/22 12:12:34;;;;;;;18.30;12.10;;;18.20;42.80;;;;;;4997213;28;20502;-57
2022/04/22 12:15:04;;;;;;;15.47;10.40;;;18.20;43.40;;;;;;4995288;28;20546;-57
2022/04/22 12:17:30;;;;;;;19.50;11.53;;;18.20;43.90;;;;;;4994037;28;20439;-62
2022/04/22 12:19:56;;;;;;;14.13;9.93;;;18.50;44.50;;;;;;4996960;28;20437;-57
2022/04/22 12:22:23;;;;;;;13.93;11.40;;;18.90;42.90;;;;;;4989657;28;20180;-56
2022/04/22 12:25:12;;;;;;;14.13;10.97;;;19.10;42.10;;;;;;4994794;28;20978;-55
2022/04/22 12:27:39;;;;;;;14.20;11.53;;;18.90;41.20;;;;;;4999287;28;20523;-56
2022/04/22 12:30:12;;;;;;;13.97;11.60;;;18.70;41.50;;;;;;4999526;28;21148;-57
2022/04/22 12:32:39;;;;;;;17.70;13.77;;;18.60;41.90;;;;;;4996096;28;20511;-56
2022/04/22 12:35:13;;;;;;;15.50;12.13;;;18.40;42.20;;;;;;4993060;28;20513;-57
2022/04/22 12:38:03;;;;;;;15.63;12.20;;;18.50;43.40;;;;;;5019576;22;20508;-60
2022/04/22 12:40:33;;;;;;;25.20;13.67;;;18.90;44.20;;;;;;5022469;28;20435;-59
2022/04/22 12:43:28;;;;;;;18.43;14.07;;;19.40;44.40;;;;;;5020231;28;20434;-60
2022/04/22 12:54:16;;;;;;;16.20;11.43;;;21.00;40.70;;;;;;5025945;28;20688;-62
2022/04/22 12:56:50;;;;;;;16.57;11.60;;;21.30;40.60;;;;;;5028822;28;20664;-60
2022/04/22 12:59:15;;;;;;;15.37;12.47;;;21.50;40.10;;;;;;5025018;28;20546;-60
2022/04/22 13:01:42;;;;;;;15.13;10.90;;;21.50;38.80;;;;;;5019009;28;20536;-59
2022/04/22 13:04:26;;;;;;;14.30;10.30;;;21.50;39.70;;;;;;5013006;28;20191;-60
2022/04/22 13:06:51;;;;;;;15.47;11.70;;;21.60;40.60;;;;;;5010812;28;20897;-61
2022/04/22 13:09:19;;;;;;;15.03;11.90;;;21.50;39.30;;;;;;5023299;28;20430;-60
2022/04/22 13:11:46;;;;;;;17.53;11.90;;;21.50;39.70;;;;;;5025794;28;20648;-60
2022/04/22 13:14:12;;;;;;;12.13;10.77;;;21.40;39.10;;;;;;5023060;28;20453;-60
2022/04/22 13:16:38;;;;;;;17.30;11.63;;;21.10;38.80;;;;;;5024834;28;20447;-59
2022/04/22 13:19:04;;;;;;;15.10;11.90;;;20.90;38.90;;;;;;5024102;28;20427;-61
2022/04/22 13:21:30;;;;;;;14.50;11.03;;;20.80;39.00;;;;;;5021364;28;20188;-60
2022/04/22 13:23:56;;;;;;;16.13;11.30;;;20.70;39.30;;;;;;5017815;28;20435;-60
2022/04/22 13:26:22;;;;;;;13.17;11.30;;;20.50;38.80;;;;;;5021227;28;20418;-60
2022/04/22 13:28:49;;;;;;;11.80;10.50;;;20.40;39.10;;;;;;5024482;28;20179;-61
2022/04/22 13:31:16;;;;;;;17.43;10.13;;;20.30;38.80;;;;;;5015145;28;20484;-60
2022/04/22 13:33:41;;;;;;;15.00;11.27;;;20.30;39.00;;;;;;5018537;28;20553;-60
2022/04/22 13:36:10;;;;;;;15.00;11.40;;;20.30;40.20;;;;;;5019907;28;20442;-60
2022/04/22 13:38:37;;;;;;;19.77;11.33;;;20.50;39.50;;;;;;5018692;28;20298;-59
2022/04/22 13:41:06;;;;;;;19.20;11.30;;;20.40;38.70;;;;;;5017604;28;20430;-60
2022/04/22 13:43:33;;;;;;;15.10;11.13;;;20.20;39.50;;;;;;5023606;28;20451;-61
2022/04/22 13:54:12;;;;;;;26.40;12.30;;;19.90;40.40;;;;;;5013437;28;20541;-61
2022/04/22 13:56:38;;;;;;;17.03;12.20;;;19.80;40.00;;;;;;5020636;28;20541;-60
2022/04/22 13:59:03;;;;;;;11.77;9.37;;;19.60;40.30;;;;;;5013691;28;20544;-60